sensor_id;sensor_type;location;lat;lon;timestamp;P1;durP1;ratioP1;P2;durP2;ratioP2
19691;SDS011;42748;50.016;19.890;2024-02-04T00:01:06;8.68;;;5.78;;
19691;SDS011;42748;50.016;19.890;2024-02-04T00:03:34;9.50;;;5.70;;
19691;SDS011;42748;50.016;19.890;2024-02-04T00:06:02;8.43;;;5.60;;
19691;SDS011;42748;50.016;19.890;2024-02-04T00:08:30;8.60;;;5.78;;
19691;SDS011;42748;50.016;19.890;2024-02-04T00:10:57;9.32;;;5.90;;
19691;SDS011;42748;50.016;19.890;2024-02-04T00:13:25;8.50;;;5.57;;
19691;SDS011;42748;50.016;19.890;2024-02-04T00:15:53;11.13;;;6.45;;
19691;SDS011;42748;50.016;19.890;2024-02-04T00:18:21;8.40;;;5.60;;
19691;SDS011;42748;50.016;19.890;2024-02-04T00:20:48;8.13;;;5.45;;
19691;SDS011;42748;50.016;19.890;2024-02-04T00:23:16;9.20;;;6.05;;
19691;SDS011;42748;50.016;19.890;2024-02-04T00:25:44;9.23;;;5.90;;
19691;SDS011;42748;50.016;19.890;2024-02-04T00:28:11;9.60;;;5.90;;
19691;SDS011;42748;50.016;19.890;2024-02-04T00:30:39;8.77;;;5.75;;
19691;SDS011;42748;50.016;19.890;2024-02-04T00:33:07;8.93;;;5.75;;
19691;SDS011;42748;50.016;19.890;2024-02-04T00:35:35;9.23;;;5.35;;
19691;SDS011;42748;50.016;19.890;2024-02-04T00:38:03;9.52;;;5.38;;
19691;SDS011;42748;50.016;19.890;2024-02-04T00:40:30;7.22;;;4.88;;
19691;SDS011;42748;50.016;19.890;2024-02-04T00:43:02;7.13;;;5.00;;
19691;SDS011;42748;50.016;19.890;2024-02-04T00:45:30;7.80;;;5.00;;
19691;SDS011;42748;50.016;19.890;2024-02-04T00:47:58;7.57;;;4.93;;
19691;SDS011;42748;50.016;19.890;2024-02-04T00:50:25;6.43;;;4.65;;
19691;SDS011;42748;50.016;19.890;2024-02-04T00:52:54;7.20;;;4.78;;
19691;SDS011;42748;50.016;19.890;2024-02-04T00:55:22;9.50;;;4.97;;
19691;SDS011;42748;50.016;19.890;2024-02-04T00:57:50;8.52;;;4.75;;
19691;SDS011;42748;50.016;19.890;2024-02-04T01:00:18;6.15;;;4.45;;
19691;SDS011;42748;50.016;19.890;2024-02-04T01:02:45;7.40;;;4.95;;
19691;SDS011;42748;50.016;19.890;2024-02-04T01:05:13;6.57;;;4.35;;
19691;SDS011;42748;50.016;19.890;2024-02-04T01:07:42;8.20;;;5.57;;
19691;SDS011;42748;50.016;19.890;2024-02-04T01:10:10;7.93;;;5.07;;
19691;SDS011;42748;50.016;19.890;2024-02-04T01:12:37;7.78;;;5.47;;
19691;SDS011;42748;50.016;19.890;2024-02-04T01:15:05;10.45;;;5.93;;
19691;SDS011;42748;50.016;19.890;2024-02-04T01:17:33;8.10;;;5.68;;
19691;SDS011;42748;50.016;19.890;2024-02-04T01:20:01;7.45;;;5.18;;
19691;SDS011;42748;50.016;19.890;2024-02-04T01:22:28;9.35;;;5.68;;
19691;SDS011;42748;50.016;19.890;2024-02-04T01:24:57;9.43;;;5.95;;
19691;SDS011;42748;50.016;19.890;2024-02-04T01:27:25;10.15;;;6.25;;
19691;SDS011;42748;50.016;19.890;2024-02-04T01:29:53;10.55;;;6.28;;
19691;SDS011;42748;50.016;19.890;2024-02-04T01:32:23;8.88;;;6.40;;
19691;SDS011;42748;50.016;19.890;2024-02-04T01:34:51;8.13;;;6.00;;
19691;SDS011;42748;50.016;19.890;2024-02-04T01:37:19;9.20;;;6.70;;
19691;SDS011;42748;50.016;19.890;2024-02-04T01:39:47;12.20;;;7.28;;
19691;SDS011;42748;50.016;19.890;2024-02-04T01:42:17;10.95;;;7.47;;
19691;SDS011;42748;50.016;19.890;2024-02-04T01:44:44;12.00;;;7.78;;
19691;SDS011;42748;50.016;19.890;2024-02-04T01:47:12;11.65;;;7.93;;
19691;SDS011;42748;50.016;19.890;2024-02-04T01:49:40;12.05;;;8.35;;
19691;SDS011;42748;50.016;19.890;2024-02-04T01:52:07;13.30;;;7.93;;
19691;SDS011;42748;50.016;19.890;2024-02-04T01:54:35;14.40;;;8.75;;
19691;SDS011;42748;50.016;19.890;2024-02-04T01:57:04;14.63;;;9.85;;
19691;SDS011;42748;50.016;19.890;2024-02-04T01:59:33;15.90;;;9.25;;
19691;SDS011;42748;50.016;19.890;2024-02-04T02:02:00;15.32;;;9.57;;
19691;SDS011;42748;50.016;19.890;2024-02-04T02:04:28;16.88;;;10.05;;
19691;SDS011;42748;50.016;19.890;2024-02-04T02:06:56;15.13;;;9.85;;
19691;SDS011;42748;50.016;19.890;2024-02-04T02:09:26;14.60;;;9.30;;
19691;SDS011;42748;50.016;19.890;2024-02-04T02:12:01;15.02;;;9.77;;
19691;SDS011;42748;50.016;19.890;2024-02-04T02:14:33;14.77;;;9.45;;
19691;SDS011;42748;50.016;19.890;2024-02-04T02:17:05;17.42;;;9.88;;
19691;SDS011;42748;50.016;19.890;2024-02-04T02:22:29;18.73;;;11.23;;
19691;SDS011;42748;50.016;19.890;2024-02-04T02:24:57;14.30;;;9.05;;
19691;SDS011;42748;50.016;19.890;2024-02-04T02:27:25;13.63;;;9.35;;
19691;SDS011;42748;50.016;19.890;2024-02-04T02:29:53;13.10;;;9.10;;
19691;SDS011;42748;50.016;19.890;2024-02-04T02:32:21;12.43;;;8.75;;
19691;SDS011;42748;50.016;19.890;2024-02-04T02:34:48;13.10;;;8.32;;
19691;SDS011;42748;50.016;19.890;2024-02-04T02:42:21;10.90;;;7.22;;
19691;SDS011;42748;50.016;19.890;2024-02-04T02:44:50;11.30;;;6.85;;
19691;SDS011;42748;50.016;19.890;2024-02-04T02:47:17;9.98;;;7.30;;
19691;SDS011;42748;50.016;19.890;2024-02-04T02:49:46;9.88;;;7.25;;
19691;SDS011;42748;50.016;19.890;2024-02-04T02:52:14;9.75;;;7.32;;
19691;SDS011;42748;50.016;19.890;2024-02-04T02:54:41;11.05;;;7.57;;
19691;SDS011;42748;50.016;19.890;2024-02-04T02:57:09;10.32;;;7.40;;
19691;SDS011;42748;50.016;19.890;2024-02-04T02:59:37;10.13;;;6.90;;
19691;SDS011;42748;50.016;19.890;2024-02-04T03:02:04;11.25;;;7.60;;
19691;SDS011;42748;50.016;19.890;2024-02-04T03:04:32;9.27;;;6.53;;
19691;SDS011;42748;50.016;19.890;2024-02-04T03:06:59;7.72;;;6.10;;
19691;SDS011;42748;50.016;19.890;2024-02-04T03:09:28;7.97;;;5.65;;
19691;SDS011;42748;50.016;19.890;2024-02-04T03:11:55;7.68;;;5.90;;
19691;SDS011;42748;50.016;19.890;2024-02-04T03:14:23;7.95;;;5.50;;
19691;SDS011;42748;50.016;19.890;2024-02-04T03:16:50;5.22;;;3.85;;
19691;SDS011;42748;50.016;19.890;2024-02-04T03:19:20;4.60;;;3.60;;
19691;SDS011;42748;50.016;19.890;2024-02-04T03:21:48;6.50;;;3.40;;
19691;SDS011;42748;50.016;19.890;2024-02-04T03:24:16;4.13;;;2.92;;
19691;SDS011;42748;50.016;19.890;2024-02-04T03:26:43;5.22;;;2.88;;
19691;SDS011;42748;50.016;19.890;2024-02-04T03:29:11;4.28;;;2.80;;
19691;SDS011;42748;50.016;19.890;2024-02-04T03:31:39;4.47;;;3.00;;
19691;SDS011;42748;50.016;19.890;2024-02-04T03:34:07;5.05;;;2.92;;
19691;SDS011;42748;50.016;19.890;2024-02-04T03:36:36;5.22;;;3.05;;
19691;SDS011;42748;50.016;19.890;2024-02-04T03:39:05;4.95;;;2.90;;
19691;SDS011;42748;50.016;19.890;2024-02-04T03:41:33;5.43;;;2.75;;
19691;SDS011;42748;50.016;19.890;2024-02-04T03:44:00;3.83;;;2.70;;
19691;SDS011;42748;50.016;19.890;2024-02-04T03:46:28;6.50;;;2.60;;
19691;SDS011;42748;50.016;19.890;2024-02-04T03:48:56;3.50;;;2.35;;
19691;SDS011;42748;50.016;19.890;2024-02-04T03:51:23;3.35;;;2.20;;
19691;SDS011;42748;50.016;19.890;2024-02-04T03:53:51;6.13;;;2.60;;
19691;SDS011;42748;50.016;19.890;2024-02-04T03:56:19;4.32;;;2.22;;
19691;SDS011;42748;50.016;19.890;2024-02-04T03:58:47;3.45;;;1.90;;
19691;SDS011;42748;50.016;19.890;2024-02-04T04:01:15;3.92;;;2.00;;
19691;SDS011;42748;50.016;19.890;2024-02-04T04:03:42;4.30;;;2.20;;
19691;SDS011;42748;50.016;19.890;2024-02-04T04:06:10;2.85;;;2.00;;
19691;SDS011;42748;50.016;19.890;2024-02-04T04:08:38;2.85;;;1.90;;
19691;SDS011;42748;50.016;19.890;2024-02-04T04:11:07;3.25;;;1.70;;
19691;SDS011;42748;50.016;19.890;2024-02-04T04:13:35;2.20;;;1.48;;
19691;SDS011;42748;50.016;19.890;2024-02-04T04:16:03;2.35;;;1.75;;
19691;SDS011;42748;50.016;19.890;2024-02-04T04:18:31;4.37;;;1.60;;
19691;SDS011;42748;50.016;19.890;2024-02-04T04:20:59;2.53;;;1.60;;
19691;SDS011;42748;50.016;19.890;2024-02-04T04:23:27;2.85;;;1.60;;
19691;SDS011;42748;50.016;19.890;2024-02-04T04:25:54;4.15;;;1.80;;
19691;SDS011;42748;50.016;19.890;2024-02-04T04:28:22;3.70;;;1.58;;
19691;SDS011;42748;50.016;19.890;2024-02-04T04:30:49;3.05;;;1.60;;
19691;SDS011;42748;50.016;19.890;2024-02-04T04:33:18;5.22;;;1.92;;
19691;SDS011;42748;50.016;19.890;2024-02-04T04:35:45;2.70;;;1.83;;
19691;SDS011;42748;50.016;19.890;2024-02-04T04:38:13;4.63;;;1.80;;
19691;SDS011;42748;50.016;19.890;2024-02-04T04:40:40;2.25;;;1.60;;
19691;SDS011;42748;50.016;19.890;2024-02-04T04:43:08;2.72;;;1.70;;
19691;SDS011;42748;50.016;19.890;2024-02-04T04:45:35;3.28;;;1.85;;
19691;SDS011;42748;50.016;19.890;2024-02-04T04:48:03;2.78;;;1.73;;
19691;SDS011;42748;50.016;19.890;2024-02-04T04:50:31;4.72;;;1.92;;
19691;SDS011;42748;50.016;19.890;2024-02-04T04:52:59;3.15;;;2.03;;
19691;SDS011;42748;50.016;19.890;2024-02-04T04:55:26;4.22;;;2.38;;
19691;SDS011;42748;50.016;19.890;2024-02-04T04:57:54;3.40;;;2.40;;
19691;SDS011;42748;50.016;19.890;2024-02-04T05:00:22;4.30;;;2.47;;
19691;SDS011;42748;50.016;19.890;2024-02-04T05:02:49;4.55;;;2.50;;
19691;SDS011;42748;50.016;19.890;2024-02-04T05:05:17;4.43;;;2.75;;
19691;SDS011;42748;50.016;19.890;2024-02-04T05:07:45;4.50;;;2.70;;
19691;SDS011;42748;50.016;19.890;2024-02-04T05:10:14;5.68;;;3.10;;
19691;SDS011;42748;50.016;19.890;2024-02-04T05:12:41;5.28;;;2.92;;
19691;SDS011;42748;50.016;19.890;2024-02-04T05:15:09;5.60;;;2.90;;
19691;SDS011;42748;50.016;19.890;2024-02-04T05:17:37;4.47;;;2.80;;
19691;SDS011;42748;50.016;19.890;2024-02-04T05:20:05;5.45;;;2.80;;
19691;SDS011;42748;50.016;19.890;2024-02-04T05:22:34;5.05;;;2.97;;
19691;SDS011;42748;50.016;19.890;2024-02-04T05:25:02;6.32;;;2.83;;
19691;SDS011;42748;50.016;19.890;2024-02-04T05:27:31;4.28;;;2.88;;
19691;SDS011;42748;50.016;19.890;2024-02-04T05:29:59;5.53;;;2.70;;
19691;SDS011;42748;50.016;19.890;2024-02-04T05:32:27;4.95;;;2.90;;
19691;SDS011;42748;50.016;19.890;2024-02-04T05:34:55;6.75;;;3.33;;
19691;SDS011;42748;50.016;19.890;2024-02-04T05:37:22;6.75;;;3.17;;
19691;SDS011;42748;50.016;19.890;2024-02-04T05:39:50;5.90;;;2.83;;
19691;SDS011;42748;50.016;19.890;2024-02-04T05:42:17;7.80;;;3.40;;
19691;SDS011;42748;50.016;19.890;2024-02-04T05:44:45;5.53;;;3.08;;
19691;SDS011;42748;50.016;19.890;2024-02-04T05:47:12;6.10;;;3.50;;
19691;SDS011;42748;50.016;19.890;2024-02-04T05:49:39;6.90;;;3.13;;
19691;SDS011;42748;50.016;19.890;2024-02-04T05:52:08;5.38;;;2.90;;
19691;SDS011;42748;50.016;19.890;2024-02-04T05:54:39;4.10;;;2.85;;
19691;SDS011;42748;50.016;19.890;2024-02-04T05:57:06;7.10;;;3.00;;
19691;SDS011;42748;50.016;19.890;2024-02-04T05:59:34;5.07;;;3.07;;
19691;SDS011;42748;50.016;19.890;2024-02-04T06:02:01;5.88;;;2.67;;
19691;SDS011;42748;50.016;19.890;2024-02-04T06:04:30;5.18;;;3.30;;
19691;SDS011;42748;50.016;19.890;2024-02-04T06:06:59;5.95;;;3.25;;
19691;SDS011;42748;50.016;19.890;2024-02-04T06:09:27;5.05;;;2.95;;
19691;SDS011;42748;50.016;19.890;2024-02-04T06:11:54;6.10;;;3.13;;
19691;SDS011;42748;50.016;19.890;2024-02-04T06:14:22;6.23;;;3.20;;
19691;SDS011;42748;50.016;19.890;2024-02-04T06:16:49;7.30;;;3.60;;
19691;SDS011;42748;50.016;19.890;2024-02-04T06:19:17;7.55;;;3.50;;
19691;SDS011;42748;50.016;19.890;2024-02-04T06:21:44;4.97;;;3.30;;
19691;SDS011;42748;50.016;19.890;2024-02-04T06:24:12;4.67;;;3.23;;
19691;SDS011;42748;50.016;19.890;2024-02-04T06:26:39;5.15;;;3.70;;
19691;SDS011;42748;50.016;19.890;2024-02-04T06:29:07;6.20;;;4.00;;
19691;SDS011;42748;50.016;19.890;2024-02-04T06:31:35;8.23;;;4.85;;
19691;SDS011;42748;50.016;19.890;2024-02-04T06:34:02;7.20;;;5.13;;
19691;SDS011;42748;50.016;19.890;2024-02-04T06:36:31;6.93;;;4.80;;
19691;SDS011;42748;50.016;19.890;2024-02-04T06:39:01;9.77;;;5.17;;
19691;SDS011;42748;50.016;19.890;2024-02-04T06:41:28;6.93;;;4.73;;
19691;SDS011;42748;50.016;19.890;2024-02-04T06:43:56;8.38;;;4.93;;
19691;SDS011;42748;50.016;19.890;2024-02-04T06:46:24;8.55;;;5.13;;
19691;SDS011;42748;50.016;19.890;2024-02-04T06:48:52;7.43;;;5.00;;
19691;SDS011;42748;50.016;19.890;2024-02-04T06:51:20;9.32;;;5.20;;
19691;SDS011;42748;50.016;19.890;2024-02-04T06:53:48;10.10;;;5.20;;
19691;SDS011;42748;50.016;19.890;2024-02-04T06:56:16;8.87;;;5.43;;
19691;SDS011;42748;50.016;19.890;2024-02-04T06:58:43;8.98;;;5.78;;
19691;SDS011;42748;50.016;19.890;2024-02-04T07:01:11;11.07;;;5.60;;
19691;SDS011;42748;50.016;19.890;2024-02-04T07:03:39;8.60;;;5.07;;
19691;SDS011;42748;50.016;19.890;2024-02-04T07:06:06;7.13;;;4.32;;
19691;SDS011;42748;50.016;19.890;2024-02-04T07:08:34;6.22;;;4.07;;
19691;SDS011;42748;50.016;19.890;2024-02-04T07:11:01;5.38;;;3.85;;
19691;SDS011;42748;50.016;19.890;2024-02-04T07:13:30;8.10;;;3.55;;
19691;SDS011;42748;50.016;19.890;2024-02-04T07:15:57;5.80;;;3.45;;
19691;SDS011;42748;50.016;19.890;2024-02-04T07:18:25;4.55;;;3.20;;
19691;SDS011;42748;50.016;19.890;2024-02-04T07:20:53;7.55;;;3.50;;
19691;SDS011;42748;50.016;19.890;2024-02-04T07:23:20;5.03;;;3.17;;
19691;SDS011;42748;50.016;19.890;2024-02-04T07:25:48;6.53;;;3.30;;
19691;SDS011;42748;50.016;19.890;2024-02-04T07:28:15;5.53;;;2.80;;
19691;SDS011;42748;50.016;19.890;2024-02-04T07:30:43;6.07;;;2.67;;
19691;SDS011;42748;50.016;19.890;2024-02-04T07:33:10;5.90;;;2.63;;
19691;SDS011;42748;50.016;19.890;2024-02-04T07:35:38;4.93;;;2.65;;
19691;SDS011;42748;50.016;19.890;2024-02-04T07:38:06;6.13;;;2.40;;
19691;SDS011;42748;50.016;19.890;2024-02-04T07:40:33;4.63;;;2.50;;
19691;SDS011;42748;50.016;19.890;2024-02-04T07:43:01;6.05;;;2.78;;
19691;SDS011;42748;50.016;19.890;2024-02-04T07:45:29;5.22;;;2.40;;
19691;SDS011;42748;50.016;19.890;2024-02-04T07:47:57;5.65;;;1.95;;
19691;SDS011;42748;50.016;19.890;2024-02-04T07:50:24;4.78;;;2.10;;
19691;SDS011;42748;50.016;19.890;2024-02-04T07:52:52;4.72;;;2.20;;
19691;SDS011;42748;50.016;19.890;2024-02-04T07:55:20;4.38;;;2.28;;
19691;SDS011;42748;50.016;19.890;2024-02-04T07:57:47;4.95;;;2.15;;
19691;SDS011;42748;50.016;19.890;2024-02-04T08:00:15;10.45;;;2.45;;
19691;SDS011;42748;50.016;19.890;2024-02-04T08:02:44;5.57;;;1.83;;
19691;SDS011;42748;50.016;19.890;2024-02-04T08:05:12;5.65;;;1.88;;
19691;SDS011;42748;50.016;19.890;2024-02-04T08:07:40;5.30;;;2.03;;
19691;SDS011;42748;50.016;19.890;2024-02-04T08:10:08;4.50;;;1.90;;
19691;SDS011;42748;50.016;19.890;2024-02-04T08:12:35;6.50;;;1.95;;
19691;SDS011;42748;50.016;19.890;2024-02-04T08:15:03;6.10;;;1.85;;
19691;SDS011;42748;50.016;19.890;2024-02-04T08:17:31;5.05;;;2.00;;
19691;SDS011;42748;50.016;19.890;2024-02-04T08:20:00;8.25;;;1.98;;
19691;SDS011;42748;50.016;19.890;2024-02-04T08:22:28;6.88;;;2.10;;
19691;SDS011;42748;50.016;19.890;2024-02-04T08:24:55;6.68;;;1.60;;
19691;SDS011;42748;50.016;19.890;2024-02-04T08:27:23;7.25;;;1.65;;
19691;SDS011;42748;50.016;19.890;2024-02-04T08:29:51;6.03;;;1.77;;
19691;SDS011;42748;50.016;19.890;2024-02-04T08:32:18;5.90;;;2.25;;
19691;SDS011;42748;50.016;19.890;2024-02-04T08:34:46;5.40;;;1.88;;
19691;SDS011;42748;50.016;19.890;2024-02-04T08:37:14;5.35;;;2.00;;
19691;SDS011;42748;50.016;19.890;2024-02-04T08:39:41;4.18;;;1.85;;
19691;SDS011;42748;50.016;19.890;2024-02-04T08:42:09;7.85;;;2.40;;
19691;SDS011;42748;50.016;19.890;2024-02-04T08:44:36;4.57;;;2.13;;
19691;SDS011;42748;50.016;19.890;2024-02-04T08:47:05;6.00;;;2.20;;
19691;SDS011;42748;50.016;19.890;2024-02-04T08:49:37;7.57;;;2.60;;
19691;SDS011;42748;50.016;19.890;2024-02-04T08:52:05;7.68;;;3.08;;
19691;SDS011;42748;50.016;19.890;2024-02-04T08:54:33;6.30;;;2.63;;
19691;SDS011;42748;50.016;19.890;2024-02-04T08:57:01;6.53;;;2.63;;
19691;SDS011;42748;50.016;19.890;2024-02-04T08:59:28;6.40;;;3.05;;
19691;SDS011;42748;50.016;19.890;2024-02-04T09:01:55;7.97;;;3.15;;
19691;SDS011;42748;50.016;19.890;2024-02-04T09:04:23;5.30;;;2.70;;
19691;SDS011;42748;50.016;19.890;2024-02-04T09:06:51;7.45;;;3.28;;
19691;SDS011;42748;50.016;19.890;2024-02-04T09:09:18;8.88;;;2.95;;
19691;SDS011;42748;50.016;19.890;2024-02-04T09:11:46;8.52;;;3.00;;
19691;SDS011;42748;50.016;19.890;2024-02-04T09:14:14;5.90;;;2.90;;
19691;SDS011;42748;50.016;19.890;2024-02-04T09:16:41;4.60;;;2.65;;
19691;SDS011;42748;50.016;19.890;2024-02-04T09:19:09;8.13;;;3.28;;
19691;SDS011;42748;50.016;19.890;2024-02-04T09:21:37;5.43;;;2.50;;
19691;SDS011;42748;50.016;19.890;2024-02-04T09:24:05;9.57;;;2.85;;
19691;SDS011;42748;50.016;19.890;2024-02-04T09:26:33;5.32;;;2.55;;
19691;SDS011;42748;50.016;19.890;2024-02-04T09:29:00;9.07;;;2.45;;
19691;SDS011;42748;50.016;19.890;2024-02-04T09:31:28;7.13;;;2.72;;
19691;SDS011;42748;50.016;19.890;2024-02-04T09:33:56;10.20;;;3.20;;
19691;SDS011;42748;50.016;19.890;2024-02-04T09:36:24;8.10;;;2.50;;
19691;SDS011;42748;50.016;19.890;2024-02-04T09:38:53;9.30;;;2.70;;
19691;SDS011;42748;50.016;19.890;2024-02-04T09:41:22;6.43;;;2.67;;
19691;SDS011;42748;50.016;19.890;2024-02-04T09:43:51;6.22;;;2.40;;
19691;SDS011;42748;50.016;19.890;2024-02-04T09:46:19;9.00;;;2.60;;
19691;SDS011;42748;50.016;19.890;2024-02-04T09:48:47;9.73;;;2.67;;
19691;SDS011;42748;50.016;19.890;2024-02-04T09:51:16;5.53;;;2.10;;
19691;SDS011;42748;50.016;19.890;2024-02-04T09:53:44;6.45;;;2.47;;
19691;SDS011;42748;50.016;19.890;2024-02-04T09:56:12;5.65;;;2.40;;
19691;SDS011;42748;50.016;19.890;2024-02-04T09:58:44;9.20;;;2.70;;
19691;SDS011;42748;50.016;19.890;2024-02-04T10:01:12;6.47;;;2.40;;
19691;SDS011;42748;50.016;19.890;2024-02-04T10:03:42;9.13;;;3.92;;
19691;SDS011;42748;50.016;19.890;2024-02-04T10:06:10;10.50;;;3.85;;
19691;SDS011;42748;50.016;19.890;2024-02-04T10:08:38;9.65;;;3.70;;
19691;SDS011;42748;50.016;19.890;2024-02-04T10:11:05;10.38;;;4.25;;
19691;SDS011;42748;50.016;19.890;2024-02-04T10:13:51;11.13;;;4.53;;
19691;SDS011;42748;50.016;19.890;2024-02-04T10:16:19;11.63;;;4.13;;
19691;SDS011;42748;50.016;19.890;2024-02-04T10:18:48;10.93;;;4.97;;
19691;SDS011;42748;50.016;19.890;2024-02-04T10:23:45;9.88;;;4.88;;
19691;SDS011;42748;50.016;19.890;2024-02-04T10:26:12;11.45;;;5.28;;
19691;SDS011;42748;50.016;19.890;2024-02-04T10:28:40;9.18;;;4.78;;
19691;SDS011;42748;50.016;19.890;2024-02-04T10:31:08;11.45;;;4.45;;
19691;SDS011;42748;50.016;19.890;2024-02-04T10:33:39;9.48;;;4.35;;
19691;SDS011;42748;50.016;19.890;2024-02-04T10:36:06;9.52;;;4.13;;
19691;SDS011;42748;50.016;19.890;2024-02-04T10:38:34;9.05;;;4.55;;
19691;SDS011;42748;50.016;19.890;2024-02-04T10:41:02;9.23;;;3.72;;
19691;SDS011;42748;50.016;19.890;2024-02-04T10:43:33;8.23;;;4.00;;
19691;SDS011;42748;50.016;19.890;2024-02-04T10:46:04;9.40;;;3.97;;
19691;SDS011;42748;50.016;19.890;2024-02-04T10:48:36;10.95;;;4.18;;
19691;SDS011;42748;50.016;19.890;2024-02-04T10:51:12;7.93;;;3.60;;
19691;SDS011;42748;50.016;19.890;2024-02-04T10:53:47;7.70;;;3.95;;
19691;SDS011;42748;50.016;19.890;2024-02-04T10:56:19;9.80;;;3.80;;
19691;SDS011;42748;50.016;19.890;2024-02-04T10:58:49;8.57;;;3.40;;
19691;SDS011;42748;50.016;19.890;2024-02-04T11:01:18;8.48;;;3.78;;
19691;SDS011;42748;50.016;19.890;2024-02-04T11:03:46;9.07;;;4.07;;
19691;SDS011;42748;50.016;19.890;2024-02-04T11:06:13;8.65;;;4.43;;
19691;SDS011;42748;50.016;19.890;2024-02-04T11:08:41;8.05;;;4.63;;
19691;SDS011;42748;50.016;19.890;2024-02-04T11:11:10;8.23;;;4.15;;
19691;SDS011;42748;50.016;19.890;2024-02-04T11:13:38;9.93;;;4.40;;
19691;SDS011;42748;50.016;19.890;2024-02-04T11:16:07;8.52;;;4.43;;
19691;SDS011;42748;50.016;19.890;2024-02-04T11:18:47;8.88;;;4.53;;
19691;SDS011;42748;50.016;19.890;2024-02-04T11:24:06;9.88;;;4.88;;
19691;SDS011;42748;50.016;19.890;2024-02-04T11:26:37;8.70;;;4.85;;
19691;SDS011;42748;50.016;19.890;2024-02-04T11:29:07;11.45;;;5.07;;
19691;SDS011;42748;50.016;19.890;2024-02-04T11:31:37;6.70;;;3.95;;
19691;SDS011;42748;50.016;19.890;2024-02-04T11:34:06;11.48;;;4.90;;
19691;SDS011;42748;50.016;19.890;2024-02-04T11:36:40;10.93;;;4.40;;
19691;SDS011;42748;50.016;19.890;2024-02-04T11:39:14;10.30;;;5.32;;
19691;SDS011;42748;50.016;19.890;2024-02-04T11:41:48;10.52;;;5.20;;
19691;SDS011;42748;50.016;19.890;2024-02-04T11:44:22;10.30;;;5.03;;
19691;SDS011;42748;50.016;19.890;2024-02-04T11:46:54;8.20;;;4.35;;
19691;SDS011;42748;50.016;19.890;2024-02-04T11:49:24;8.68;;;4.63;;
19691;SDS011;42748;50.016;19.890;2024-02-04T11:51:53;9.23;;;4.03;;
19691;SDS011;42748;50.016;19.890;2024-02-04T11:54:21;10.45;;;4.97;;
19691;SDS011;42748;50.016;19.890;2024-02-04T11:56:49;9.40;;;4.68;;
19691;SDS011;42748;50.016;19.890;2024-02-04T11:59:20;9.90;;;4.90;;
19691;SDS011;42748;50.016;19.890;2024-02-04T12:01:48;10.82;;;4.60;;
19691;SDS011;42748;50.016;19.890;2024-02-04T12:04:16;8.55;;;4.65;;
19691;SDS011;42748;50.016;19.890;2024-02-04T12:06:44;7.55;;;4.53;;
19691;SDS011;42748;50.016;19.890;2024-02-04T12:09:13;9.43;;;4.70;;
19691;SDS011;42748;50.016;19.890;2024-02-04T12:11:44;9.95;;;4.50;;
19691;SDS011;42748;50.016;19.890;2024-02-04T12:14:12;11.40;;;5.03;;
19691;SDS011;42748;50.016;19.890;2024-02-04T12:16:42;10.88;;;5.60;;
19691;SDS011;42748;50.016;19.890;2024-02-04T12:19:09;10.30;;;6.13;;
19691;SDS011;42748;50.016;19.890;2024-02-04T12:21:37;9.55;;;5.90;;
19691;SDS011;42748;50.016;19.890;2024-02-04T12:24:05;11.98;;;6.10;;
19691;SDS011;42748;50.016;19.890;2024-02-04T12:26:32;11.32;;;7.15;;
19691;SDS011;42748;50.016;19.890;2024-02-04T12:29:01;13.00;;;6.97;;
19691;SDS011;42748;50.016;19.890;2024-02-04T12:31:29;12.73;;;7.18;;
19691;SDS011;42748;50.016;19.890;2024-02-04T12:33:59;13.45;;;6.90;;
19691;SDS011;42748;50.016;19.890;2024-02-04T12:36:31;11.07;;;6.60;;
19691;SDS011;42748;50.016;19.890;2024-02-04T12:39:00;11.57;;;6.80;;
19691;SDS011;42748;50.016;19.890;2024-02-04T12:41:28;14.70;;;7.43;;
19691;SDS011;42748;50.016;19.890;2024-02-04T12:43:57;14.48;;;7.03;;
19691;SDS011;42748;50.016;19.890;2024-02-04T12:46:28;11.10;;;6.57;;
19691;SDS011;42748;50.016;19.890;2024-02-04T12:48:57;12.48;;;7.03;;
19691;SDS011;42748;50.016;19.890;2024-02-04T12:51:31;14.82;;;7.35;;
19691;SDS011;42748;50.016;19.890;2024-02-04T12:59:08;11.82;;;7.13;;
19691;SDS011;42748;50.016;19.890;2024-02-04T13:01:39;14.60;;;7.72;;
19691;SDS011;42748;50.016;19.890;2024-02-04T13:04:07;12.93;;;7.50;;
19691;SDS011;42748;50.016;19.890;2024-02-04T13:06:38;11.23;;;6.85;;
19691;SDS011;42748;50.016;19.890;2024-02-04T13:09:06;12.73;;;7.30;;
19691;SDS011;42748;50.016;19.890;2024-02-04T13:11:35;11.88;;;6.90;;
19691;SDS011;42748;50.016;19.890;2024-02-04T13:14:03;16.10;;;8.35;;
19691;SDS011;42748;50.016;19.890;2024-02-04T13:16:31;14.75;;;8.25;;
19691;SDS011;42748;50.016;19.890;2024-02-04T13:18:59;14.77;;;7.95;;
19691;SDS011;42748;50.016;19.890;2024-02-04T13:21:26;14.77;;;8.60;;
19691;SDS011;42748;50.016;19.890;2024-02-04T13:23:54;14.75;;;9.18;;
19691;SDS011;42748;50.016;19.890;2024-02-04T13:26:22;17.38;;;9.85;;
19691;SDS011;42748;50.016;19.890;2024-02-04T13:28:49;23.20;;;11.65;;
19691;SDS011;42748;50.016;19.890;2024-02-04T13:31:17;19.30;;;10.52;;
19691;SDS011;42748;50.016;19.890;2024-02-04T13:33:45;19.73;;;9.75;;
19691;SDS011;42748;50.016;19.890;2024-02-04T13:36:12;18.63;;;9.75;;
19691;SDS011;42748;50.016;19.890;2024-02-04T13:38:40;16.60;;;9.98;;
19691;SDS011;42748;50.016;19.890;2024-02-04T13:41:10;16.30;;;9.25;;
19691;SDS011;42748;50.016;19.890;2024-02-04T13:43:38;14.27;;;9.05;;
19691;SDS011;42748;50.016;19.890;2024-02-04T13:46:05;16.45;;;8.77;;
19691;SDS011;42748;50.016;19.890;2024-02-04T13:48:33;15.82;;;9.20;;
19691;SDS011;42748;50.016;19.890;2024-02-04T13:51:01;17.52;;;9.82;;
19691;SDS011;42748;50.016;19.890;2024-02-04T13:53:28;16.15;;;9.52;;
19691;SDS011;42748;50.016;19.890;2024-02-04T13:55:58;16.35;;;10.27;;
19691;SDS011;42748;50.016;19.890;2024-02-04T13:58:26;20.13;;;10.93;;
19691;SDS011;42748;50.016;19.890;2024-02-04T14:00:53;18.60;;;10.63;;
19691;SDS011;42748;50.016;19.890;2024-02-04T14:03:21;18.70;;;10.40;;
19691;SDS011;42748;50.016;19.890;2024-02-04T14:05:49;15.77;;;9.20;;
19691;SDS011;42748;50.016;19.890;2024-02-04T14:08:17;15.57;;;9.02;;
19691;SDS011;42748;50.016;19.890;2024-02-04T14:10:47;13.63;;;7.78;;
19691;SDS011;42748;50.016;19.890;2024-02-04T14:13:14;12.65;;;7.30;;
19691;SDS011;42748;50.016;19.890;2024-02-04T14:15:41;10.00;;;5.95;;
19691;SDS011;42748;50.016;19.890;2024-02-04T14:18:09;9.85;;;5.97;;
19691;SDS011;42748;50.016;19.890;2024-02-04T14:20:37;9.43;;;5.68;;
19691;SDS011;42748;50.016;19.890;2024-02-04T14:23:04;9.02;;;5.22;;
19691;SDS011;42748;50.016;19.890;2024-02-04T14:25:32;8.07;;;4.97;;
19691;SDS011;42748;50.016;19.890;2024-02-04T14:27:59;8.38;;;5.35;;
19691;SDS011;42748;50.016;19.890;2024-02-04T14:30:27;8.32;;;4.35;;
19691;SDS011;42748;50.016;19.890;2024-02-04T14:32:54;10.13;;;4.47;;
19691;SDS011;42748;50.016;19.890;2024-02-04T14:35:23;8.77;;;4.13;;
19691;SDS011;42748;50.016;19.890;2024-02-04T14:37:50;7.60;;;3.75;;
19691;SDS011;42748;50.016;19.890;2024-02-04T14:40:18;6.57;;;3.53;;
19691;SDS011;42748;50.016;19.890;2024-02-04T14:42:46;5.47;;;3.38;;
19691;SDS011;42748;50.016;19.890;2024-02-04T14:45:14;6.25;;;3.58;;
19691;SDS011;42748;50.016;19.890;2024-02-04T14:47:41;6.82;;;3.70;;
19691;SDS011;42748;50.016;19.890;2024-02-04T14:50:09;5.68;;;3.08;;
19691;SDS011;42748;50.016;19.890;2024-02-04T14:52:38;7.75;;;3.50;;
19691;SDS011;42748;50.016;19.890;2024-02-04T14:55:06;5.53;;;2.88;;